sensor_id;sensor_type;location;lat;lon;timestamp;pressure;altitude;pressure_sealevel;temperature;humidity
48790;BME280;41718;51.980;5.734;2023-02-03T00:01:42;102216.13;;;7.52;100.00
48790;BME280;41718;51.980;5.734;2023-02-03T00:06:44;102225.63;;;7.53;100.00
48790;BME280;41718;51.980;5.734;2023-02-03T00:11:46;102238.56;;;7.54;100.00
48790;BME280;41718;51.980;5.734;2023-02-03T00:16:50;102242.69;;;7.51;100.00
48790;BME280;41718;51.980;5.734;2023-02-03T00:21:51;102243.13;;;7.60;100.00
48790;BME280;41718;51.980;5.734;2023-02-03T00:26:55;102250.84;;;7.60;100.00
48790;BME280;41718;51.980;5.734;2023-02-03T00:31:56;102266.88;;;7.54;100.00
48790;BME280;41718;51.980;5.734;2023-02-03T00:36:59;102256.81;;;7.59;100.00
48790;BME280;41718;51.980;5.734;2023-02-03T00:42:00;102274.13;;;7.61;100.00
48790;BME280;41718;51.980;5.734;2023-02-03T00:47:02;102270.75;;;7.62;100.00
48790;BME280;41718;51.980;5.734;2023-02-03T00:52:03;102270.75;;;7.62;100.00
48790;BME280;41718;51.980;5.734;2023-02-03T00:57:05;102265.84;;;7.67;100.00
48790;BME280;41718;51.980;5.734;2023-02-03T01:02:06;102257.81;;;7.61;100.00
48790;BME280;41718;51.980;5.734;2023-02-03T01:07:08;102254.78;;;7.69;100.00
48790;BME280;41718;51.980;5.734;2023-02-03T01:12:10;102264.06;;;7.66;100.00
48790;BME280;41718;51.980;5.734;2023-02-03T01:17:11;102242.66;;;7.67;100.00
48790;BME280;41718;51.980;5.734;2023-02-03T01:22:12;102246.69;;;7.62;100.00
48790;BME280;41718;51.980;5.734;2023-02-03T01:27:14;102247.69;;;7.65;100.00
48790;BME280;41718;51.980;5.734;2023-02-03T01:32:18;102244.19;;;7.63;100.00
48790;BME280;41718;51.980;5.734;2023-02-03T01:37:20;102230.66;;;7.67;100.00
48790;BME280;41718;51.980;5.734;2023-02-03T01:42:21;102228.72;;;7.63;100.00
48790;BME280;41718;51.980;5.734;2023-02-03T01:47:43;102211.28;;;7.58;100.00
48790;BME280;41718;51.980;5.734;2023-02-03T01:52:50;102202.50;;;7.54;100.00
48790;BME280;41718;51.980;5.734;2023-02-03T01:58:01;102204.38;;;7.57;100.00
48790;BME280;41718;51.980;5.734;2023-02-03T02:03:04;102209.25;;;7.68;100.00
48790;BME280;41718;51.980;5.734;2023-02-03T02:08:08;102203.63;;;7.59;100.00
48790;BME280;41718;51.980;5.734;2023-02-03T02:13:10;102197.59;;;7.59;100.00
48790;BME280;41718;51.980;5.734;2023-02-03T02:45:43;102201.34;;;7.65;100.00
48790;BME280;41718;51.980;5.734;2023-02-03T02:50:46;102183.47;;;7.68;100.00
48790;BME280;41718;51.980;5.734;2023-02-03T02:55:51;102204.91;;;7.67;100.00
48790;BME280;41718;51.980;5.734;2023-02-03T03:00:53;102170.66;;;7.70;100.00
48790;BME280;41718;51.980;5.734;2023-02-03T03:05:59;102156.03;;;7.69;100.00
48790;BME280;41718;51.980;5.734;2023-02-03T03:11:02;102163.03;;;7.72;100.00
48790;BME280;41718;51.980;5.734;2023-02-03T03:16:05;102166.56;;;7.74;100.00
48790;BME280;41718;51.980;5.734;2023-02-03T03:21:14;102168.09;;;7.70;100.00
48790;BME280;41718;51.980;5.734;2023-02-03T03:26:26;102176.69;;;7.70;100.00
48790;BME280;41718;51.980;5.734;2023-02-03T03:31:29;102187.16;;;7.74;100.00
48790;BME280;41718;51.980;5.734;2023-02-03T03:36:46;102180.47;;;7.77;100.00
48790;BME280;41718;51.980;5.734;2023-02-03T03:41:52;102206.59;;;7.85;100.00
48790;BME280;41718;51.980;5.734;2023-02-03T03:47:11;102191.78;;;7.81;100.00
48790;BME280;41718;51.980;5.734;2023-02-03T03:52:19;102197.09;;;7.84;100.00
48790;BME280;41718;51.980;5.734;2023-02-03T03:57:29;102182.59;;;7.86;100.00
48790;BME280;41718;51.980;5.734;2023-02-03T04:02:32;102203.84;;;7.82;100.00
48790;BME280;41718;51.980;5.734;2023-02-03T04:07:41;102201.22;;;7.80;100.00
48790;BME280;41718;51.980;5.734;2023-02-03T04:12:43;102194.38;;;7.81;100.00
48790;BME280;41718;51.980;5.734;2023-02-03T04:17:44;102213.50;;;7.86;100.00
48790;BME280;41718;51.980;5.734;2023-02-03T04:22:46;102190.03;;;7.80;100.00
48790;BME280;41718;51.980;5.734;2023-02-03T04:27:47;102202.25;;;7.84;100.00
48790;BME280;41718;51.980;5.734;2023-02-03T04:32:49;102215.13;;;7.84;100.00
48790;BME280;41718;51.980;5.734;2023-02-03T04:37:50;102191.78;;;7.81;100.00
48790;BME280;41718;51.980;5.734;2023-02-03T04:42:52;102178.03;;;7.80;100.00
48790;BME280;41718;51.980;5.734;2023-02-03T04:47:53;102183.47;;;7.86;100.00
48790;BME280;41718;51.980;5.734;2023-02-03T04:52:55;102183.25;;;7.82;100.00
48790;BME280;41718;51.980;5.734;2023-02-03T04:57:59;102183.63;;;7.89;100.00
48790;BME280;41718;51.980;5.734;2023-02-03T05:03:01;102188.25;;;7.96;100.00
48790;BME280;41718;51.980;5.734;2023-02-03T05:08:02;102183.81;;;7.94;100.00
48790;BME280;41718;51.980;5.734;2023-02-03T05:13:04;102188.84;;;7.91;100.00
48790;BME280;41718;51.980;5.734;2023-02-03T05:18:05;102183.47;;;7.86;100.00
48790;BME280;41718;51.980;5.734;2023-02-03T05:23:07;102174.22;;;7.90;100.00
48790;BME280;41718;51.980;5.734;2023-02-03T05:28:08;102187.91;;;7.89;100.00
48790;BME280;41718;51.980;5.734;2023-02-03T05:33:09;102190.19;;;7.83;100.00
48790;BME280;41718;51.980;5.734;2023-02-03T05:38:11;102192.78;;;7.83;100.00
48790;BME280;41718;51.980;5.734;2023-02-03T05:43:12;102172.94;;;7.82;100.00
48790;BME280;41718;51.980;5.734;2023-02-03T05:48:14;102184.28;;;7.85;100.00
48790;BME280;41718;51.980;5.734;2023-02-03T05:53:15;102189.88;;;7.77;100.00
48790;BME280;41718;51.980;5.734;2023-02-03T05:58:16;102194.25;;;7.78;100.00
48790;BME280;41718;51.980;5.734;2023-02-03T06:03:18;102192.44;;;7.77;100.00
48790;BME280;41718;51.980;5.734;2023-02-03T06:08:19;102192.44;;;7.77;100.00
48790;BME280;41718;51.980;5.734;2023-02-03T06:13:21;102182.97;;;7.76;100.00
48790;BME280;41718;51.980;5.734;2023-02-03T06:18:22;102176.88;;;7.74;100.00
48790;BME280;41718;51.980;5.734;2023-02-03T06:23:24;102183.72;;;7.73;100.00
48790;BME280;41718;51.980;5.734;2023-02-03T06:28:25;102187.09;;;7.72;100.00
48790;BME280;41718;51.980;5.734;2023-02-03T06:33:27;102190.56;;;7.73;100.00
48790;BME280;41718;51.980;5.734;2023-02-03T06:38:36;102193.63;;;7.65;100.00
48790;BME280;41718;51.980;5.734;2023-02-03T06:43:37;102220.34;;;7.67;100.00
48790;BME280;41718;51.980;5.734;2023-02-03T06:48:39;102224.47;;;7.64;100.00
48790;BME280;41718;51.980;5.734;2023-02-03T06:53:40;102219.19;;;7.61;100.00
48790;BME280;41718;51.980;5.734;2023-02-03T06:58:43;102207.91;;;7.59;100.00
48790;BME280;41718;51.980;5.734;2023-02-03T07:03:45;102229.47;;;7.61;100.00
48790;BME280;41718;51.980;5.734;2023-02-03T07:08:47;102237.09;;;7.59;100.00
48790;BME280;41718;51.980;5.734;2023-02-03T07:13:50;102232.75;;;7.58;100.00
48790;BME280;41718;51.980;5.734;2023-02-03T07:18:52;102243.31;;;7.63;100.00
48790;BME280;41718;51.980;5.734;2023-02-03T07:23:54;102241.38;;;7.59;100.00
48790;BME280;41718;51.980;5.734;2023-02-03T07:28:56;102245.88;;;7.63;100.00
48790;BME280;41718;51.980;5.734;2023-02-03T07:34:03;102245.06;;;7.64;100.00
48790;BME280;41718;51.980;5.734;2023-02-03T07:39:05;102236.38;;;7.62;100.00
48790;BME280;41718;51.980;5.734;2023-02-03T07:44:06;102237.41;;;7.65;100.00
48790;BME280;41718;51.980;5.734;2023-02-03T07:49:14;102241.91;;;7.69;100.00
48790;BME280;41718;51.980;5.734;2023-02-03T07:54:17;102232.34;;;7.67;100.00
48790;BME280;41718;51.980;5.734;2023-02-03T07:59:19;102246.03;;;7.66;100.00
48790;BME280;41718;51.980;5.734;2023-02-03T08:04:21;102246.47;;;7.75;100.00
48790;BME280;41718;51.980;5.734;2023-02-03T08:09:23;102255.25;;;7.79;100.00
48790;BME280;41718;51.980;5.734;2023-02-03T08:14:24;102271.88;;;7.85;100.00
48790;BME280;41718;51.980;5.734;2023-02-03T08:19:25;102265.56;;;7.96;100.00
48790;BME280;41718;51.980;5.734;2023-02-03T08:24:27;102280.44;;;8.02;100.00
48790;BME280;41718;51.980;5.734;2023-02-03T08:29:29;102282.19;;;8.03;100.00
48790;BME280;41718;51.980;5.734;2023-02-03T08:34:32;102286.22;;;8.16;100.00
48790;BME280;41718;51.980;5.734;2023-02-03T08:39:34;102278.59;;;8.17;100.00
48790;BME280;41718;51.980;5.734;2023-02-03T08:44:36;102282.88;;;8.17;100.00
48790;BME280;41718;51.980;5.734;2023-02-03T08:49:39;102279.09;;;8.28;100.00
48790;BME280;41718;51.980;5.734;2023-02-03T08:54:41;102299.06;;;8.32;100.00
48790;BME280;41718;51.980;5.734;2023-02-03T08:59:47;102303.97;;;8.28;100.00
48790;BME280;41718;51.980;5.734;2023-02-03T09:04:49;102300.13;;;8.36;100.00
48790;BME280;41718;51.980;5.734;2023-02-03T09:09:53;102308.00;;;8.39;100.00
48790;BME280;41718;51.980;5.734;2023-02-03T09:14:54;102313.25;;;8.40;100.00
48790;BME280;41718;51.980;5.734;2023-02-03T09:19:56;102312.56;;;8.44;100.00
48790;BME280;41718;51.980;5.734;2023-02-03T09:24:58;102297.16;;;8.46;100.00
48790;BME280;41718;51.980;5.734;2023-02-03T09:30:01;102310.25;;;8.50;100.00
48790;BME280;41718;51.980;5.734;2023-02-03T09:35:03;102311.59;;;8.60;100.00
48790;BME280;41718;51.980;5.734;2023-02-03T09:40:06;102311.97;;;8.68;100.00
48790;BME280;41718;51.980;5.734;2023-02-03T09:45:20;102312.41;;;8.79;100.00
48790;BME280;41718;51.980;5.734;2023-02-03T09:50:27;102310.38;;;8.71;100.00
48790;BME280;41718;51.980;5.734;2023-02-03T09:55:42;102328.00;;;8.80;100.00
48790;BME280;41718;51.980;5.734;2023-02-03T10:01:02;102330.47;;;8.79;100.00
48790;BME280;41718;51.980;5.734;2023-02-03T10:22:12;102335.81;;;8.82;100.00
48790;BME280;41718;51.980;5.734;2023-02-03T10:27:19;102347.63;;;8.96;100.00
48790;BME280;41718;51.980;5.734;2023-02-03T10:32:23;102342.56;;;8.97;100.00
48790;BME280;41718;51.980;5.734;2023-02-03T10:37:30;102346.22;;;9.02;100.00
48790;BME280;41718;51.980;5.734;2023-02-03T10:42:36;102346.84;;;8.97;100.00
48790;BME280;41718;51.980;5.734;2023-02-03T10:47:57;102358.38;;;9.05;100.00
48790;BME280;41718;51.980;5.734;2023-02-03T10:53:23;102371.06;;;9.00;100.00
48790;BME280;41718;51.980;5.734;2023-02-03T10:58:27;102364.31;;;9.02;100.00
48790;BME280;41718;51.980;5.734;2023-02-03T11:03:30;102355.25;;;9.12;100.00
48790;BME280;41718;51.980;5.734;2023-02-03T11:08:36;102360.63;;;9.17;100.00
48790;BME280;41718;51.980;5.734;2023-02-03T11:13:37;102359.09;;;9.20;100.00
48790;BME280;41718;51.980;5.734;2023-02-03T11:23:49;102367.38;;;9.33;100.00
48790;BME280;41718;51.980;5.734;2023-02-03T11:29:05;102378.72;;;9.36;100.00
48790;BME280;41718;51.980;5.734;2023-02-03T11:34:30;102366.81;;;9.40;100.00
48790;BME280;41718;51.980;5.734;2023-02-03T11:39:32;102368.84;;;9.47;100.00
48790;BME280;41718;51.980;5.734;2023-02-03T11:44:39;102364.66;;;9.49;100.00
48790;BME280;41718;51.980;5.734;2023-02-03T11:50:06;102389.09;;;9.57;100.00
48790;BME280;41718;51.980;5.734;2023-02-03T11:55:41;102368.78;;;9.65;100.00
48790;BME280;41718;51.980;5.734;2023-02-03T12:11:47;102360.88;;;9.62;100.00
48790;BME280;41718;51.980;5.734;2023-02-03T12:22:20;102388.16;;;9.55;100.00
48790;BME280;41718;51.980;5.734;2023-02-03T12:27:37;102400.00;;;9.50;100.00
48790;BME280;41718;51.980;5.734;2023-02-03T12:32:52;102411.09;;;9.47;100.00
48790;BME280;41718;51.980;5.734;2023-02-03T12:38:04;102418.69;;;9.07;100.00
48790;BME280;41718;51.980;5.734;2023-02-03T12:43:18;102429.63;;;9.01;100.00
48790;BME280;41718;51.980;5.734;2023-02-03T12:48:27;102416.81;;;9.03;100.00
48790;BME280;41718;51.980;5.734;2023-02-03T12:53:32;102438.34;;;8.86;100.00
48790;BME280;41718;51.980;5.734;2023-02-03T12:58:39;102457.66;;;8.76;100.00
48790;BME280;41718;51.980;5.734;2023-02-03T13:03:49;102463.63;;;8.57;100.00
48790;BME280;41718;51.980;5.734;2023-02-03T13:09:02;102461.25;;;8.44;100.00
48790;BME280;41718;51.980;5.734;2023-02-03T13:19:39;102476.88;;;8.31;100.00
48790;BME280;41718;51.980;5.734;2023-02-03T13:24:48;102465.03;;;8.34;100.00
48790;BME280;41718;51.980;5.734;2023-02-03T13:30:14;102464.34;;;8.37;100.00
48790;BME280;41718;51.980;5.734;2023-02-03T13:41:08;102469.88;;;8.44;100.00
48790;BME280;41718;51.980;5.734;2023-02-03T13:46:24;102459.47;;;8.43;100.00
48790;BME280;41718;51.980;5.734;2023-02-03T13:51:34;102459.53;;;8.44;100.00
48790;BME280;41718;51.980;5.734;2023-02-03T13:56:38;102462.13;;;8.44;100.00
48790;BME280;41718;51.980;5.734;2023-02-03T14:01:40;102461.25;;;8.44;100.00
48790;BME280;41718;51.980;5.734;2023-02-03T14:11:48;102453.50;;;8.44;100.00
48790;BME280;41718;51.980;5.734;2023-02-03T14:16:51;102468.16;;;8.45;100.00
48790;BME280;41718;51.980;5.734;2023-02-03T14:22:05;102483.81;;;8.48;100.00
48790;BME280;41718;51.980;5.734;2023-02-03T14:27:21;102495.00;;;8.48;100.00
48790;BME280;41718;51.980;5.734;2023-02-03T14:32:23;102517.28;;;8.46;100.00
48790;BME280;41718;51.980;5.734;2023-02-03T14:37:26;102518.16;;;8.47;100.00
48790;BME280;41718;51.980;5.734;2023-02-03T14:48:13;102528.53;;;8.48;100.00
48790;BME280;41718;51.980;5.734;2023-02-03T14:58:49;102540.25;;;8.42;100.00
48790;BME280;41718;51.980;5.734;2023-02-03T15:14:37;102526.75;;;8.31;100.00
48790;BME280;41718;51.980;5.734;2023-02-03T15:19:41;102522.34;;;8.29;100.00
48790;BME280;41718;51.980;5.734;2023-02-03T15:24:42;102522.25;;;8.27;100.00
48790;BME280;41718;51.980;5.734;2023-02-03T15:29:44;102521.38;;;8.27;100.00
48790;BME280;41718;51.980;5.734;2023-02-03T15:34:47;102520.25;;;8.21;100.00
48790;BME280;41718;51.980;5.734;2023-02-03T15:40:03;102536.44;;;8.19;100.00
48790;BME280;41718;51.980;5.734;2023-02-03T15:45:25;102545.63;;;8.14;100.00
48790;BME280;41718;51.980;5.734;2023-02-03T15:50:35;102552.22;;;8.09;100.00
48790;BME280;41718;51.980;5.734;2023-02-03T15:55:45;102563.28;;;8.06;100.00
48790;BME280;41718;51.980;5.734;2023-02-03T16:00:51;102573.50;;;8.05;100.00
48790;BME280;41718;51.980;5.734;2023-02-03T16:05:53;102578.63;;;8.05;100.00
48790;BME280;41718;51.980;5.734;2023-02-03T16:10:55;102581.72;;;7.97;100.00
48790;BME280;41718;51.980;5.734;2023-02-03T16:16:14;102587.28;;;7.89;100.00
48790;BME280;41718;51.980;5.734;2023-02-03T16:26:32;102594.75;;;7.84;100.00
48790;BME280;41718;51.980;5.734;2023-02-03T16:31:41;102602.22;;;7.80;100.00
48790;BME280;41718;51.980;5.734;2023-02-03T16:37:41;102613.06;;;7.74;100.00
48790;BME280;41718;51.980;5.734;2023-02-03T16:43:02;102621.06;;;7.79;100.00
48790;BME280;41718;51.980;5.734;2023-02-03T16:48:23;102629.59;;;7.78;100.00
48790;BME280;41718;51.980;5.734;2023-02-03T16:53:45;102631.09;;;7.74;100.00
48790;BME280;41718;51.980;5.734;2023-02-03T16:58:48;102639.84;;;7.61;100.00
48790;BME280;41718;51.980;5.734;2023-02-03T17:03:52;102643.31;;;7.62;100.00
48790;BME280;41718;51.980;5.734;2023-02-03T17:08:54;102643.66;;;7.53;100.00
48790;BME280;41718;51.980;5.734;2023-02-03T17:14:00;102655.75;;;7.54;100.00
48790;BME280;41718;51.980;5.734;2023-02-03T17:19:02;102657.34;;;7.52;100.00
48790;BME280;41718;51.980;5.734;2023-02-03T17:24:03;102666.22;;;7.42;100.00
48790;BME280;41718;51.980;5.734;2023-02-03T17:29:05;102676.72;;;7.46;100.00
48790;BME280;41718;51.980;5.734;2023-02-03T17:34:07;102694.41;;;7.39;100.00
48790;BME280;41718;51.980;5.734;2023-02-03T17:39:08;102707.19;;;7.38;100.00
48790;BME280;41718;51.980;5.734;2023-02-03T17:44:27;102712.75;;;7.31;100.00
48790;BME280;41718;51.980;5.734;2023-02-03T17:49:46;102709.81;;;7.25;100.00
48790;BME280;41718;51.980;5.734;2023-02-03T17:55:06;102721.81;;;7.24;100.00
48790;BME280;41718;51.980;5.734;2023-02-03T18:00:08;102730.25;;;7.22;100.00
48790;BME280;41718;51.980;5.734;2023-02-03T18:05:10;102740.28;;;7.17;100.00
48790;BME280;41718;51.980;5.734;2023-02-03T18:10:12;102749.47;;;7.13;100.00
48790;BME280;41718;51.980;5.734;2023-02-03T18:15:15;102755.16;;;7.08;100.00
48790;BME280;41718;51.980;5.734;2023-02-03T18:20:20;102760.94;;;7.04;100.00
48790;BME280;41718;51.980;5.734;2023-02-03T18:25:22;102761.63;;;7.01;100.00
48790;BME280;41718;51.980;5.734;2023-02-03T18:30:24;102769.25;;;7.00;100.00
48790;BME280;41718;51.980;5.734;2023-02-03T18:35:25;102784.41;;;6.95;100.00
48790;BME280;41718;51.980;5.734;2023-02-03T18:40:27;102795.78;;;6.99;100.00
48790;BME280;41718;51.980;5.734;2023-02-03T18:45:29;102803.81;;;6.90;100.00
48790;BME280;41718;51.980;5.734;2023-02-03T18:50:41;102810.84;;;6.93;100.00
48790;BME280;41718;51.980;5.734;2023-02-03T18:55:43;102809.75;;;6.89;100.00
48790;BME280;41718;51.980;5.734;2023-02-03T19:00:44;102817.78;;;6.94;100.00
48790;BME280;41718;51.980;5.734;2023-02-03T19:05:46;102810.56;;;6.88;100.00
48790;BME280;41718;51.980;5.734;2023-02-03T19:10:52;102807.56;;;6.95;100.00
48790;BME280;41718;51.980;5.734;2023-02-03T19:15:54;102805.50;;;6.89;100.00
48790;BME280;41718;51.980;5.734;2023-02-03T19:20:55;102813.06;;;6.86;100.00
48790;BME280;41718;51.980;5.734;2023-02-03T19:25:57;102827.84;;;6.90;100.00
48790;BME280;41718;51.980;5.734;2023-02-03T19:31:11;102830.78;;;6.82;100.00
48790;BME280;41718;51.980;5.734;2023-02-03T19:36:14;102829.16;;;6.84;100.00
48790;BME280;41718;51.980;5.734;2023-02-03T19:41:16;102842.03;;;6.84;100.00
48790;BME280;41718;51.980;5.734;2023-02-03T19:46:18;102852.81;;;6.78;100.00
48790;BME280;41718;51.980;5.734;2023-02-03T19:51:23;102846.88;;;6.79;100.00
48790;BME280;41718;51.980;5.734;2023-02-03T19:56:25;102863.06;;;6.91;100.00
48790;BME280;41718;51.980;5.734;2023-02-03T20:01:26;102871.88;;;6.95;100.00
48790;BME280;41718;51.980;5.734;2023-02-03T20:06:29;102858.22;;;6.96;100.00
48790;BME280;41718;51.980;5.734;2023-02-03T20:11:34;102872.88;;;6.97;100.00
48790;BME280;41718;51.980;5.734;2023-02-03T20:16:35;102881.16;;;7.06;100.00
48790;BME280;41718;51.980;5.734;2023-02-03T20:21:37;102876.03;;;7.06;100.00
48790;BME280;41718;51.980;5.734;2023-02-03T20:26:39;102881.25;;;7.08;100.00
48790;BME280;41718;51.980;5.734;2023-02-03T20:31:40;102884.25;;;7.01;100.00
48790;BME280;41718;51.980;5.734;2023-02-03T20:36:42;102895.63;;;7.04;100.00
48790;BME280;41718;51.980;5.734;2023-02-03T20:41:45;102900.56;;;7.01;100.00
48790;BME280;41718;51.980;5.734;2023-02-03T20:46:50;102900.78;;;7.04;100.00
48790;BME280;41718;51.980;5.734;2023-02-03T20:51:58;102908.38;;;7.03;100.00
48790;BME280;41718;51.980;5.734;2023-02-03T20:57:00;102902.47;;;7.04;100.00
48790;BME280;41718;51.980;5.734;2023-02-03T21:02:02;102912.56;;;7.01;100.00
48790;BME280;41718;51.980;5.734;2023-02-03T21:07:14;102899.47;;;7.11;100.00
48790;BME280;41718;51.980;5.734;2023-02-03T21:12:19;102903.72;;;7.10;100.00
48790;BME280;41718;51.980;5.734;2023-02-03T21:17:23;102914.19;;;7.13;100.00
48790;BME280;41718;51.980;5.734;2023-02-03T21:22:27;102913.13;;;7.10;100.00
48790;BME280;41718;51.980;5.734;2023-02-03T21:27:33;102915.81;;;7.11;100.00
48790;BME280;41718;51.980;5.734;2023-02-03T21:32:37;102911.34;;;7.09;100.00
48790;BME280;41718;51.980;5.734;2023-02-03T21:37:40;102922.25;;;7.05;100.00
48790;BME280;41718;51.980;5.734;2023-02-03T21:42:41;102931.75;;;7.06;100.00
48790;BME280;41718;51.980;5.734;2023-02-03T21:47:46;102937.19;;;7.10;100.00
48790;BME280;41718;51.980;5.734;2023-02-03T21:52:48;102939.75;;;7.10;100.00
48790;BME280;41718;51.980;5.734;2023-02-03T21:57:52;102939.16;;;7.01;100.00
48790;BME280;41718;51.980;5.734;2023-02-03T22:02:57;102946.22;;;7.04;100.00
48790;BME280;41718;51.980;5.734;2023-02-03T22:08:12;102950.25;;;7.00;100.00
48790;BME280;41718;51.980;5.734;2023-02-03T22:13:14;102960.56;;;7.00;100.00
48790;BME280;41718;51.980;5.734;2023-02-03T22:18:16;102967.31;;;6.98;100.00
48790;BME280;41718;51.980;5.734;2023-02-03T22:23:18;102978.09;;;6.93;100.00
48790;BME280;41718;51.980;5.734;2023-02-03T22:28:20;102984.91;;;6.92;100.00
48790;BME280;41718;51.980;5.734;2023-02-03T22:33:21;102973.13;;;6.82;100.00
48790;BME280;41718;51.980;5.734;2023-02-03T22:38:23;102978.47;;;6.72;100.00
48790;BME280;41718;51.980;5.734;2023-02-03T22:43:25;102989.66;;;6.73;100.00
48790;BME280;41718;51.980;5.734;2023-02-03T22:48:27;102998.66;;;6.66;100.00
48790;BME280;41718;51.980;5.734;2023-02-03T22:53:30;103005.25;;;6.62;100.00
48790;BME280;41718;51.980;5.734;2023-02-03T22:58:31;103007.47;;;6.70;100.00
48790;BME280;41718;51.980;5.734;2023-02-03T23:03:33;103017.63;;;6.68;100.00
48790;BME280;41718;51.980;5.734;2023-02-03T23:08:36;103012.41;;;6.67;100.00
48790;BME280;41718;51.980;5.734;2023-02-03T23:13:38;103018.16;;;6.76;100.00
48790;BME280;41718;51.980;5.734;2023-02-03T23:18:39;103011.41;;;6.78;100.00
48790;BME280;41718;51.980;5.734;2023-02-03T23:23:41;103017.94;;;6.86;100.00
48790;BME280;41718;51.980;5.734;2023-02-03T23:28:42;103022.50;;;6.77;100.00
48790;BME280;41718;51.980;5.734;2023-02-03T23:33:44;103019.44;;;6.82;100.00
48790;BME280;41718;51.980;5.734;2023-02-03T23:39:05;103022.59;;;6.78;100.00
48790;BME280;41718;51.980;5.734;2023-02-03T23:44:07;103027.03;;;6.68;100.00
48790;BME280;41718;51.980;5.734;2023-02-03T23:49:09;103041.19;;;6.74;100.00
48790;BME280;41718;51.980;5.734;2023-02-03T23:54:11;103047.34;;;6.76;100.00
48790;BME280;41718;51.980;5.734;2023-02-03T23:59:12;103050.28;;;6.69;100.00
